Saint Croix Falls, Wisconsin
Current Conditions -  °F | °C
As of 11:15 AM on Sunday 23 Nov 2014 (Local Time) from KOEO Reporting Station
Moderate Fog Moderate Fog  
Wind Chill: 45°   Ceiling: 300
Heat Index: 45°   Visibility: 0mi
Dew Point: 45°   Wind: 0mph
Humidity: 100%   Direction: NA
Pressure: 29.45"   Gusts: NA
Location:  45.41°N, 92.64°W
Report Text: KOEO 231715Z AUTO 00000KT M1/4SM FG OVC003 07/07 A2945 RMK AO2 T00720072
Loading
Personal Weather Stations






























Interactive Weather Map New forecast layout! Learn more

10-Day Weather Forecast

Advertisements
Track Severe Weather on mobile